Los Trujillos, New Mexico
Current Conditions -  °F | °C
As of 10:55 AM on Monday 24 Nov 2014 (Local Time) from KE80 Reporting Station
Clear Clear  
Wind Chill: 35°   Ceiling: Unl
Heat Index: 41°   Visibility: 10mi
Dew Point:   Wind: 9mph
Humidity: 21%   Direction: 300°WNW
Pressure: 30.17"   Gusts: NA
Location:  34.5756°N, 106.588°W
Report Text: KE80 241755Z AUTO 30008KT 10SM CLR 05/M16 A3017 RMK AO2 T00511156 10051 21090
Loading
Personal Weather Stations






























Interactive Weather Map New forecast layout! Learn more

10-Day Weather Forecast

Advertisements
Track Severe Weather on mobile